sensor_id;sensor_type;location;lat;lon;timestamp;P1;durP1;ratioP1;P2;durP2;ratioP2
20042;SDS011;10182;52.896;6.496;2022-11-03T00:03:14;18.10;;;3.83;;
20042;SDS011;10182;52.896;6.496;2022-11-03T00:08:16;11.30;;;2.77;;
20042;SDS011;10182;52.896;6.496;2022-11-03T00:13:17;10.13;;;3.27;;
20042;SDS011;10182;52.896;6.496;2022-11-03T00:18:20;12.33;;;3.37;;
20042;SDS011;10182;52.896;6.496;2022-11-03T00:23:23;17.60;;;4.57;;
20042;SDS011;10182;52.896;6.496;2022-11-03T00:28:26;12.13;;;3.30;;
20042;SDS011;10182;52.896;6.496;2022-11-03T00:33:31;11.40;;;3.40;;
20042;SDS011;10182;52.896;6.496;2022-11-03T00:38:33;12.50;;;3.47;;
20042;SDS011;10182;52.896;6.496;2022-11-03T00:43:36;13.33;;;3.50;;
20042;SDS011;10182;52.896;6.496;2022-11-03T00:48:39;15.73;;;3.37;;
20042;SDS011;10182;52.896;6.496;2022-11-03T00:53:42;13.60;;;3.53;;
20042;SDS011;10182;52.896;6.496;2022-11-03T00:58:45;10.67;;;3.40;;
20042;SDS011;10182;52.896;6.496;2022-11-03T01:03:48;11.63;;;3.10;;
20042;SDS011;10182;52.896;6.496;2022-11-03T01:09:05;9.47;;;3.43;;
20042;SDS011;10182;52.896;6.496;2022-11-03T01:14:07;14.57;;;3.57;;
20042;SDS011;10182;52.896;6.496;2022-11-03T01:19:11;8.80;;;2.80;;
20042;SDS011;10182;52.896;6.496;2022-11-03T01:24:12;8.77;;;2.50;;
20042;SDS011;10182;52.896;6.496;2022-11-03T01:29:15;8.97;;;3.20;;
20042;SDS011;10182;52.896;6.496;2022-11-03T01:34:19;11.87;;;2.73;;
20042;SDS011;10182;52.896;6.496;2022-11-03T01:39:21;12.57;;;2.93;;
20042;SDS011;10182;52.896;6.496;2022-11-03T01:44:27;12.63;;;3.00;;
20042;SDS011;10182;52.896;6.496;2022-11-03T01:49:34;16.27;;;3.70;;
20042;SDS011;10182;52.896;6.496;2022-11-03T01:54:41;12.80;;;3.20;;
20042;SDS011;10182;52.896;6.496;2022-11-03T01:59:45;13.40;;;3.90;;
20042;SDS011;10182;52.896;6.496;2022-11-03T02:04:49;12.27;;;4.43;;
20042;SDS011;10182;52.896;6.496;2022-11-03T02:09:51;14.73;;;4.20;;
20042;SDS011;10182;52.896;6.496;2022-11-03T02:14:53;11.53;;;3.53;;
20042;SDS011;10182;52.896;6.496;2022-11-03T02:20:00;10.33;;;3.40;;
20042;SDS011;10182;52.896;6.496;2022-11-03T02:25:10;7.13;;;2.60;;
20042;SDS011;10182;52.896;6.496;2022-11-03T02:30:17;12.33;;;3.23;;
20042;SDS011;10182;52.896;6.496;2022-11-03T02:35:19;10.83;;;2.97;;
20042;SDS011;10182;52.896;6.496;2022-11-03T02:40:26;10.20;;;3.40;;
20042;SDS011;10182;52.896;6.496;2022-11-03T02:45:32;14.07;;;3.20;;
20042;SDS011;10182;52.896;6.496;2022-11-03T02:50:34;9.07;;;3.20;;
20042;SDS011;10182;52.896;6.496;2022-11-03T02:55:36;8.87;;;3.30;;
20042;SDS011;10182;52.896;6.496;2022-11-03T03:00:42;12.37;;;2.80;;
20042;SDS011;10182;52.896;6.496;2022-11-03T03:05:48;12.37;;;3.77;;
20042;SDS011;10182;52.896;6.496;2022-11-03T03:10:55;11.80;;;3.93;;
20042;SDS011;10182;52.896;6.496;2022-11-03T03:16:05;17.57;;;3.70;;
20042;SDS011;10182;52.896;6.496;2022-11-03T03:21:14;14.70;;;3.37;;
20042;SDS011;10182;52.896;6.496;2022-11-03T03:26:20;10.07;;;3.47;;
20042;SDS011;10182;52.896;6.496;2022-11-03T03:31:27;15.43;;;3.50;;
20042;SDS011;10182;52.896;6.496;2022-11-03T03:36:34;7.87;;;2.80;;
20042;SDS011;10182;52.896;6.496;2022-11-03T03:41:40;9.73;;;2.63;;
20042;SDS011;10182;52.896;6.496;2022-11-03T03:46:46;13.73;;;3.40;;
20042;SDS011;10182;52.896;6.496;2022-11-03T03:51:51;15.83;;;3.13;;
20042;SDS011;10182;52.896;6.496;2022-11-03T03:56:54;15.23;;;3.63;;
20042;SDS011;10182;52.896;6.496;2022-11-03T04:02:02;11.73;;;3.53;;
20042;SDS011;10182;52.896;6.496;2022-11-03T04:07:03;15.60;;;3.60;;
20042;SDS011;10182;52.896;6.496;2022-11-03T04:12:23;14.57;;;3.27;;
20042;SDS011;10182;52.896;6.496;2022-11-03T04:17:44;11.43;;;3.47;;
20042;SDS011;10182;52.896;6.496;2022-11-03T04:23:05;10.00;;;3.40;;
20042;SDS011;10182;52.896;6.496;2022-11-03T04:28:07;9.57;;;2.97;;
20042;SDS011;10182;52.896;6.496;2022-11-03T04:33:13;11.17;;;3.57;;
20042;SDS011;10182;52.896;6.496;2022-11-03T04:38:21;9.57;;;3.30;;
20042;SDS011;10182;52.896;6.496;2022-11-03T04:43:31;7.83;;;3.10;;
20042;SDS011;10182;52.896;6.496;2022-11-03T04:48:36;8.43;;;3.50;;
20042;SDS011;10182;52.896;6.496;2022-11-03T04:53:38;10.20;;;4.13;;
20042;SDS011;10182;52.896;6.496;2022-11-03T04:58:43;10.77;;;3.03;;
20042;SDS011;10182;52.896;6.496;2022-11-03T05:03:48;9.37;;;3.30;;
20042;SDS011;10182;52.896;6.496;2022-11-03T05:08:54;9.33;;;2.80;;
20042;SDS011;10182;52.896;6.496;2022-11-03T05:13:58;9.80;;;3.57;;
20042;SDS011;10182;52.896;6.496;2022-11-03T05:19:03;15.63;;;3.33;;
20042;SDS011;10182;52.896;6.496;2022-11-03T05:24:12;14.70;;;3.57;;
20042;SDS011;10182;52.896;6.496;2022-11-03T05:29:14;10.57;;;3.00;;
20042;SDS011;10182;52.896;6.496;2022-11-03T05:34:30;11.70;;;3.10;;
20042;SDS011;10182;52.896;6.496;2022-11-03T05:39:35;12.23;;;3.40;;
20042;SDS011;10182;52.896;6.496;2022-11-03T05:44:38;12.53;;;4.03;;
20042;SDS011;10182;52.896;6.496;2022-11-03T05:49:42;13.27;;;3.07;;
20042;SDS011;10182;52.896;6.496;2022-11-03T05:54:44;8.40;;;2.77;;
20042;SDS011;10182;52.896;6.496;2022-11-03T05:59:46;10.80;;;2.87;;
20042;SDS011;10182;52.896;6.496;2022-11-03T06:04:52;8.20;;;3.17;;
20042;SDS011;10182;52.896;6.496;2022-11-03T06:09:54;12.93;;;3.70;;
20042;SDS011;10182;52.896;6.496;2022-11-03T06:14:56;8.73;;;2.83;;
20042;SDS011;10182;52.896;6.496;2022-11-03T06:19:59;11.10;;;3.67;;
20042;SDS011;10182;52.896;6.496;2022-11-03T06:25:10;10.57;;;3.57;;
20042;SDS011;10182;52.896;6.496;2022-11-03T06:30:19;13.50;;;3.23;;
20042;SDS011;10182;52.896;6.496;2022-11-03T06:35:25;11.23;;;3.73;;
20042;SDS011;10182;52.896;6.496;2022-11-03T06:40:33;9.73;;;3.00;;
20042;SDS011;10182;52.896;6.496;2022-11-03T06:45:36;13.93;;;3.50;;
20042;SDS011;10182;52.896;6.496;2022-11-03T06:50:40;10.03;;;2.97;;
20042;SDS011;10182;52.896;6.496;2022-11-03T06:55:41;13.10;;;3.63;;
20042;SDS011;10182;52.896;6.496;2022-11-03T07:00:43;7.70;;;3.13;;
20042;SDS011;10182;52.896;6.496;2022-11-03T07:05:46;9.57;;;3.40;;
20042;SDS011;10182;52.896;6.496;2022-11-03T07:10:48;9.87;;;3.77;;
20042;SDS011;10182;52.896;6.496;2022-11-03T07:15:51;17.37;;;3.97;;
20042;SDS011;10182;52.896;6.496;2022-11-03T07:20:54;9.60;;;2.93;;
20042;SDS011;10182;52.896;6.496;2022-11-03T07:25:58;11.40;;;3.67;;
20042;SDS011;10182;52.896;6.496;2022-11-03T07:31:00;12.23;;;4.10;;
20042;SDS011;10182;52.896;6.496;2022-11-03T07:36:14;15.13;;;3.97;;
20042;SDS011;10182;52.896;6.496;2022-11-03T07:41:20;14.57;;;4.03;;
20042;SDS011;10182;52.896;6.496;2022-11-03T07:46:24;9.93;;;3.50;;
20042;SDS011;10182;52.896;6.496;2022-11-03T07:51:29;11.30;;;3.60;;
20042;SDS011;10182;52.896;6.496;2022-11-03T07:56:33;9.20;;;3.43;;
20042;SDS011;10182;52.896;6.496;2022-11-03T08:01:39;11.87;;;3.43;;
20042;SDS011;10182;52.896;6.496;2022-11-03T08:06:44;10.47;;;4.13;;
20042;SDS011;10182;52.896;6.496;2022-11-03T08:11:45;10.93;;;4.10;;
20042;SDS011;10182;52.896;6.496;2022-11-03T08:16:48;8.57;;;3.43;;
20042;SDS011;10182;52.896;6.496;2022-11-03T08:21:51;12.83;;;4.33;;
20042;SDS011;10182;52.896;6.496;2022-11-03T08:26:53;7.37;;;3.60;;
20042;SDS011;10182;52.896;6.496;2022-11-03T08:31:55;10.03;;;3.87;;
20042;SDS011;10182;52.896;6.496;2022-11-03T08:36:58;9.83;;;3.33;;
20042;SDS011;10182;52.896;6.496;2022-11-03T08:41:59;12.10;;;3.83;;
20042;SDS011;10182;52.896;6.496;2022-11-03T08:47:01;12.63;;;4.47;;
20042;SDS011;10182;52.896;6.496;2022-11-03T08:52:04;12.87;;;3.73;;
20042;SDS011;10182;52.896;6.496;2022-11-03T08:57:06;14.37;;;4.27;;
20042;SDS011;10182;52.896;6.496;2022-11-03T09:02:08;13.30;;;3.87;;
20042;SDS011;10182;52.896;6.496;2022-11-03T09:07:11;12.17;;;3.70;;
20042;SDS011;10182;52.896;6.496;2022-11-03T09:12:12;12.80;;;4.33;;
20042;SDS011;10182;52.896;6.496;2022-11-03T09:17:14;13.20;;;4.57;;
20042;SDS011;10182;52.896;6.496;2022-11-03T09:22:17;13.43;;;4.07;;
20042;SDS011;10182;52.896;6.496;2022-11-03T09:27:19;12.57;;;4.70;;
20042;SDS011;10182;52.896;6.496;2022-11-03T09:32:21;13.27;;;3.93;;
20042;SDS011;10182;52.896;6.496;2022-11-03T09:37:24;10.50;;;4.30;;
20042;SDS011;10182;52.896;6.496;2022-11-03T09:42:25;12.97;;;4.30;;
20042;SDS011;10182;52.896;6.496;2022-11-03T09:47:28;12.17;;;4.40;;
20042;SDS011;10182;52.896;6.496;2022-11-03T09:52:34;12.90;;;3.93;;
20042;SDS011;10182;52.896;6.496;2022-11-03T09:57:37;12.50;;;3.67;;
20042;SDS011;10182;52.896;6.496;2022-11-03T10:02:38;12.40;;;3.73;;
20042;SDS011;10182;52.896;6.496;2022-11-03T10:07:43;7.03;;;3.13;;
20042;SDS011;10182;52.896;6.496;2022-11-03T10:12:45;12.60;;;3.73;;
20042;SDS011;10182;52.896;6.496;2022-11-03T10:17:49;8.30;;;4.03;;
20042;SDS011;10182;52.896;6.496;2022-11-03T10:22:53;13.10;;;3.57;;
20042;SDS011;10182;52.896;6.496;2022-11-03T10:28:14;10.50;;;3.67;;
20042;SDS011;10182;52.896;6.496;2022-11-03T10:33:25;7.37;;;2.87;;
20042;SDS011;10182;52.896;6.496;2022-11-03T10:38:30;6.57;;;2.97;;
20042;SDS011;10182;52.896;6.496;2022-11-03T10:43:33;11.70;;;3.53;;
20042;SDS011;10182;52.896;6.496;2022-11-03T10:48:34;11.37;;;2.80;;
20042;SDS011;10182;52.896;6.496;2022-11-03T10:53:37;10.37;;;2.93;;
20042;SDS011;10182;52.896;6.496;2022-11-03T10:58:41;11.93;;;3.10;;
20042;SDS011;10182;52.896;6.496;2022-11-03T11:03:43;8.17;;;3.10;;
20042;SDS011;10182;52.896;6.496;2022-11-03T11:08:47;7.33;;;3.00;;
20042;SDS011;10182;52.896;6.496;2022-11-03T11:19:23;7.00;;;2.60;;
20042;SDS011;10182;52.896;6.496;2022-11-03T11:30:00;7.73;;;2.50;;
20042;SDS011;10182;52.896;6.496;2022-11-03T11:35:05;7.77;;;2.90;;
20042;SDS011;10182;52.896;6.496;2022-11-03T11:40:12;8.33;;;2.63;;
20042;SDS011;10182;52.896;6.496;2022-11-03T11:51:14;7.57;;;2.73;;
20042;SDS011;10182;52.896;6.496;2022-11-03T11:56:16;8.00;;;2.80;;
20042;SDS011;10182;52.896;6.496;2022-11-03T12:01:19;6.47;;;2.30;;
20042;SDS011;10182;52.896;6.496;2022-11-03T12:06:33;7.00;;;2.33;;
20042;SDS011;10182;52.896;6.496;2022-11-03T12:11:39;7.93;;;2.77;;
20042;SDS011;10182;52.896;6.496;2022-11-03T12:16:42;9.37;;;2.43;;
20042;SDS011;10182;52.896;6.496;2022-11-03T12:21:46;11.67;;;2.67;;
20042;SDS011;10182;52.896;6.496;2022-11-03T12:26:48;5.40;;;2.70;;
20042;SDS011;10182;52.896;6.496;2022-11-03T12:31:50;20.10;;;3.97;;
20042;SDS011;10182;52.896;6.496;2022-11-03T12:36:56;9.40;;;2.70;;
20042;SDS011;10182;52.896;6.496;2022-11-03T12:41:58;5.80;;;2.27;;
20042;SDS011;10182;52.896;6.496;2022-11-03T12:47:00;4.80;;;2.10;;
20042;SDS011;10182;52.896;6.496;2022-11-03T12:52:03;5.80;;;2.30;;
20042;SDS011;10182;52.896;6.496;2022-11-03T12:57:07;6.17;;;2.60;;
20042;SDS011;10182;52.896;6.496;2022-11-03T13:02:09;7.80;;;2.40;;
20042;SDS011;10182;52.896;6.496;2022-11-03T13:07:12;5.03;;;2.17;;
20042;SDS011;10182;52.896;6.496;2022-11-03T13:12:14;6.97;;;1.90;;
20042;SDS011;10182;52.896;6.496;2022-11-03T13:17:31;6.83;;;2.40;;
20042;SDS011;10182;52.896;6.496;2022-11-03T13:22:34;8.47;;;2.40;;
20042;SDS011;10182;52.896;6.496;2022-11-03T13:27:37;4.80;;;1.90;;
20042;SDS011;10182;52.896;6.496;2022-11-03T13:32:39;6.63;;;1.90;;
20042;SDS011;10182;52.896;6.496;2022-11-03T13:37:42;6.07;;;2.00;;
20042;SDS011;10182;52.896;6.496;2022-11-03T13:42:44;6.60;;;2.20;;
20042;SDS011;10182;52.896;6.496;2022-11-03T13:47:45;5.53;;;2.10;;
20042;SDS011;10182;52.896;6.496;2022-11-03T13:52:48;5.83;;;2.00;;
20042;SDS011;10182;52.896;6.496;2022-11-03T13:57:50;6.93;;;2.30;;
20042;SDS011;10182;52.896;6.496;2022-11-03T14:02:52;7.73;;;1.93;;
20042;SDS011;10182;52.896;6.496;2022-11-03T14:07:55;7.07;;;2.00;;
20042;SDS011;10182;52.896;6.496;2022-11-03T14:12:56;3.53;;;1.87;;
20042;SDS011;10182;52.896;6.496;2022-11-03T14:17:58;6.10;;;2.13;;
20042;SDS011;10182;52.896;6.496;2022-11-03T14:23:01;6.53;;;1.80;;
20042;SDS011;10182;52.896;6.496;2022-11-03T14:28:03;4.43;;;1.83;;
20042;SDS011;10182;52.896;6.496;2022-11-03T14:33:05;4.50;;;1.53;;
20042;SDS011;10182;52.896;6.496;2022-11-03T14:38:08;4.57;;;1.87;;
20042;SDS011;10182;52.896;6.496;2022-11-03T14:43:10;4.63;;;1.63;;
20042;SDS011;10182;52.896;6.496;2022-11-03T14:48:12;5.53;;;1.83;;
20042;SDS011;10182;52.896;6.496;2022-11-03T14:53:15;2.80;;;1.70;;
20042;SDS011;10182;52.896;6.496;2022-11-03T14:58:16;5.53;;;1.80;;
20042;SDS011;10182;52.896;6.496;2022-11-03T15:03:18;5.37;;;1.70;;
20042;SDS011;10182;52.896;6.496;2022-11-03T15:08:21;6.43;;;1.70;;
20042;SDS011;10182;52.896;6.496;2022-11-03T15:13:24;6.67;;;1.90;;
20042;SDS011;10182;52.896;6.496;2022-11-03T15:18:26;5.67;;;1.97;;
20042;SDS011;10182;52.896;6.496;2022-11-03T15:23:29;4.53;;;1.90;;
20042;SDS011;10182;52.896;6.496;2022-11-03T15:28:32;5.23;;;1.77;;
20042;SDS011;10182;52.896;6.496;2022-11-03T15:33:34;6.70;;;3.47;;
20042;SDS011;10182;52.896;6.496;2022-11-03T15:38:37;5.00;;;2.00;;
20042;SDS011;10182;52.896;6.496;2022-11-03T15:43:39;5.27;;;2.00;;
20042;SDS011;10182;52.896;6.496;2022-11-03T15:48:40;6.13;;;2.10;;
20042;SDS011;10182;52.896;6.496;2022-11-03T15:53:44;4.80;;;2.10;;
20042;SDS011;10182;52.896;6.496;2022-11-03T15:58:46;6.97;;;2.50;;
20042;SDS011;10182;52.896;6.496;2022-11-03T16:03:47;4.77;;;2.20;;
20042;SDS011;10182;52.896;6.496;2022-11-03T16:08:50;6.63;;;2.53;;
20042;SDS011;10182;52.896;6.496;2022-11-03T16:13:52;6.80;;;2.43;;
20042;SDS011;10182;52.896;6.496;2022-11-03T16:18:54;5.47;;;2.10;;
20042;SDS011;10182;52.896;6.496;2022-11-03T16:23:57;5.20;;;1.70;;
20042;SDS011;10182;52.896;6.496;2022-11-03T16:28:59;5.30;;;2.50;;
20042;SDS011;10182;52.896;6.496;2022-11-03T16:34:01;9.80;;;3.40;;
20042;SDS011;10182;52.896;6.496;2022-11-03T16:39:05;4.93;;;2.23;;
20042;SDS011;10182;52.896;6.496;2022-11-03T16:44:06;4.83;;;2.00;;
20042;SDS011;10182;52.896;6.496;2022-11-03T16:49:08;4.70;;;2.07;;
20042;SDS011;10182;52.896;6.496;2022-11-03T16:54:11;5.00;;;2.17;;
20042;SDS011;10182;52.896;6.496;2022-11-03T16:59:13;5.73;;;2.13;;
20042;SDS011;10182;52.896;6.496;2022-11-03T17:04:14;5.57;;;2.30;;
20042;SDS011;10182;52.896;6.496;2022-11-03T17:09:17;6.23;;;2.47;;
20042;SDS011;10182;52.896;6.496;2022-11-03T17:14:20;5.93;;;2.10;;
20042;SDS011;10182;52.896;6.496;2022-11-03T17:19:21;4.77;;;1.90;;
20042;SDS011;10182;52.896;6.496;2022-11-03T17:24:24;4.87;;;2.73;;
20042;SDS011;10182;52.896;6.496;2022-11-03T17:29:29;6.37;;;2.50;;
20042;SDS011;10182;52.896;6.496;2022-11-03T17:34:35;3.90;;;2.60;;
20042;SDS011;10182;52.896;6.496;2022-11-03T17:39:39;6.97;;;2.70;;
20042;SDS011;10182;52.896;6.496;2022-11-03T17:44:41;6.10;;;2.77;;
20042;SDS011;10182;52.896;6.496;2022-11-03T17:49:43;6.83;;;2.97;;
20042;SDS011;10182;52.896;6.496;2022-11-03T17:54:46;4.17;;;3.17;;
20042;SDS011;10182;52.896;6.496;2022-11-03T17:59:49;6.20;;;3.37;;
20042;SDS011;10182;52.896;6.496;2022-11-03T18:04:54;7.53;;;4.13;;
20042;SDS011;10182;52.896;6.496;2022-11-03T18:10:02;7.80;;;3.97;;
20042;SDS011;10182;52.896;6.496;2022-11-03T18:15:05;7.33;;;4.57;;
20042;SDS011;10182;52.896;6.496;2022-11-03T18:20:12;9.87;;;5.13;;
20042;SDS011;10182;52.896;6.496;2022-11-03T18:25:19;8.73;;;5.23;;
20042;SDS011;10182;52.896;6.496;2022-11-03T18:30:21;8.17;;;5.10;;
20042;SDS011;10182;52.896;6.496;2022-11-03T18:35:23;6.40;;;4.87;;
20042;SDS011;10182;52.896;6.496;2022-11-03T18:40:30;7.77;;;5.03;;
20042;SDS011;10182;52.896;6.496;2022-11-03T18:45:33;7.63;;;5.20;;
20042;SDS011;10182;52.896;6.496;2022-11-03T18:50:34;8.70;;;5.90;;
20042;SDS011;10182;52.896;6.496;2022-11-03T18:55:37;12.07;;;6.20;;
20042;SDS011;10182;52.896;6.496;2022-11-03T19:00:39;7.43;;;6.57;;
20042;SDS011;10182;52.896;6.496;2022-11-03T19:05:41;12.03;;;7.03;;
20042;SDS011;10182;52.896;6.496;2022-11-03T19:10:44;12.43;;;6.40;;
20042;SDS011;10182;52.896;6.496;2022-11-03T19:15:46;12.63;;;7.97;;
20042;SDS011;10182;52.896;6.496;2022-11-03T19:20:48;9.03;;;7.43;;
20042;SDS011;10182;52.896;6.496;2022-11-03T19:25:51;9.20;;;8.03;;
20042;SDS011;10182;52.896;6.496;2022-11-03T19:30:56;10.03;;;7.57;;
20042;SDS011;10182;52.896;6.496;2022-11-03T19:35:58;11.33;;;9.43;;
20042;SDS011;10182;52.896;6.496;2022-11-03T19:41:02;10.07;;;9.03;;
20042;SDS011;10182;52.896;6.496;2022-11-03T19:46:21;12.17;;;10.87;;
20042;SDS011;10182;52.896;6.496;2022-11-03T19:51:23;13.37;;;11.43;;
20042;SDS011;10182;52.896;6.496;2022-11-03T19:56:26;12.23;;;11.00;;
20042;SDS011;10182;52.896;6.496;2022-11-03T20:01:28;14.33;;;12.83;;
20042;SDS011;10182;52.896;6.496;2022-11-03T20:06:29;16.10;;;12.70;;
20042;SDS011;10182;52.896;6.496;2022-11-03T20:11:34;14.90;;;12.77;;
20042;SDS011;10182;52.896;6.496;2022-11-03T20:16:36;14.23;;;12.80;;
20042;SDS011;10182;52.896;6.496;2022-11-03T20:21:38;16.03;;;13.77;;
20042;SDS011;10182;52.896;6.496;2022-11-03T20:26:42;16.47;;;13.37;;
20042;SDS011;10182;52.896;6.496;2022-11-03T20:31:44;14.73;;;13.23;;
20042;SDS011;10182;52.896;6.496;2022-11-03T20:36:45;18.13;;;13.50;;
20042;SDS011;10182;52.896;6.496;2022-11-03T20:41:48;20.20;;;16.13;;
20042;SDS011;10182;52.896;6.496;2022-11-03T20:46:51;16.73;;;14.83;;
20042;SDS011;10182;52.896;6.496;2022-11-03T20:51:52;16.77;;;14.93;;
20042;SDS011;10182;52.896;6.496;2022-11-03T20:56:56;17.90;;;15.30;;
20042;SDS011;10182;52.896;6.496;2022-11-03T21:01:57;22.27;;;15.17;;
20042;SDS011;10182;52.896;6.496;2022-11-03T21:06:59;17.00;;;14.50;;
20042;SDS011;10182;52.896;6.496;2022-11-03T21:12:02;19.20;;;14.43;;
20042;SDS011;10182;52.896;6.496;2022-11-03T21:17:07;16.90;;;14.90;;
20042;SDS011;10182;52.896;6.496;2022-11-03T21:22:31;14.83;;;13.33;;
20042;SDS011;10182;52.896;6.496;2022-11-03T21:27:36;19.33;;;14.80;;
20042;SDS011;10182;52.896;6.496;2022-11-03T21:32:38;16.00;;;14.30;;
20042;SDS011;10182;52.896;6.496;2022-11-03T21:37:40;20.53;;;15.57;;
20042;SDS011;10182;52.896;6.496;2022-11-03T21:42:43;18.93;;;15.87;;
20042;SDS011;10182;52.896;6.496;2022-11-03T21:48:03;17.40;;;14.17;;
20042;SDS011;10182;52.896;6.496;2022-11-03T21:53:23;16.73;;;14.83;;
20042;SDS011;10182;52.896;6.496;2022-11-03T21:58:26;18.97;;;15.47;;
20042;SDS011;10182;52.896;6.496;2022-11-03T22:03:28;17.30;;;15.50;;
20042;SDS011;10182;52.896;6.496;2022-11-03T22:08:30;17.10;;;15.30;;
20042;SDS011;10182;52.896;6.496;2022-11-03T22:13:33;16.63;;;14.73;;
20042;SDS011;10182;52.896;6.496;2022-11-03T22:18:35;17.30;;;15.50;;
20042;SDS011;10182;52.896;6.496;2022-11-03T22:23:37;16.33;;;14.27;;
20042;SDS011;10182;52.896;6.496;2022-11-03T22:28:57;15.33;;;13.70;;
20042;SDS011;10182;52.896;6.496;2022-11-03T22:34:16;15.37;;;13.70;;
20042;SDS011;10182;52.896;6.496;2022-11-03T22:39:35;16.67;;;14.57;;
20042;SDS011;10182;52.896;6.496;2022-11-03T22:44:56;16.13;;;13.87;;
20042;SDS011;10182;52.896;6.496;2022-11-03T22:50:15;16.53;;;14.27;;
20042;SDS011;10182;52.896;6.496;2022-11-03T22:55:17;16.50;;;14.90;;
20042;SDS011;10182;52.896;6.496;2022-11-03T23:00:20;16.40;;;14.50;;
20042;SDS011;10182;52.896;6.496;2022-11-03T23:05:21;18.03;;;15.13;;
20042;SDS011;10182;52.896;6.496;2022-11-03T23:10:23;16.03;;;14.37;;
20042;SDS011;10182;52.896;6.496;2022-11-03T23:15:30;19.17;;;16.20;;
20042;SDS011;10182;52.896;6.496;2022-11-03T23:20:32;17.30;;;15.50;;
20042;SDS011;10182;52.896;6.496;2022-11-03T23:25:47;18.43;;;15.27;;
20042;SDS011;10182;52.896;6.496;2022-11-03T23:30:50;17.63;;;15.90;;
20042;SDS011;10182;52.896;6.496;2022-11-03T23:35:52;18.03;;;16.13;;
20042;SDS011;10182;52.896;6.496;2022-11-03T23:40:54;16.03;;;14.43;;
20042;SDS011;10182;52.896;6.496;2022-11-03T23:45:57;17.20;;;15.60;;
20042;SDS011;10182;52.896;6.496;2022-11-03T23:51:16;16.10;;;14.60;;
20042;SDS011;10182;52.896;6.496;2022-11-03T23:56:19;15.63;;;14.13;;
